createdAt,value
2022-08-31T00:01:53.741Z,23.80
2022-08-31T00:04:20.695Z,23.80
2022-08-31T00:06:53.798Z,23.80
2022-08-31T00:09:21.643Z,23.80
2022-08-31T00:11:48.514Z,23.80
2022-08-31T00:14:16.236Z,23.80
2022-08-31T00:16:45.246Z,23.80
2022-08-31T00:19:12.966Z,23.80
2022-08-31T00:21:39.903Z,23.80
2022-08-31T00:24:07.115Z,23.70
2022-08-31T00:26:34.119Z,23.80
2022-08-31T00:29:01.020Z,23.80
2022-08-31T00:31:28.608Z,23.70
2022-08-31T00:33:56.612Z,23.70
2022-08-31T00:36:25.360Z,23.70
2022-08-31T00:38:53.359Z,23.70
2022-08-31T00:41:24.426Z,23.70
2022-08-31T00:44:00.964Z,23.70
2022-08-31T00:46:30.975Z,23.70
2022-08-31T00:49:01.377Z,23.70
2022-08-31T00:51:30.131Z,23.70
2022-08-31T00:53:58.745Z,23.60
2022-08-31T00:56:27.609Z,23.60
2022-08-31T00:58:55.233Z,23.60
2022-08-31T01:01:23.268Z,23.60
2022-08-31T01:03:50.240Z,23.60
2022-08-31T01:06:18.189Z,23.60
2022-08-31T01:08:46.952Z,23.60
2022-08-31T01:11:15.262Z,23.60
2022-08-31T01:13:44.984Z,23.60
2022-08-31T01:16:19.702Z,23.60
2022-08-31T01:18:48.366Z,23.60
2022-08-31T01:21:33.783Z,23.60
2022-08-31T01:24:03.516Z,23.60
2022-08-31T01:26:32.935Z,23.60
2022-08-31T01:29:04.592Z,23.60
2022-08-31T01:31:42.531Z,23.60
2022-08-31T01:34:09.820Z,23.60
2022-08-31T01:36:39.068Z,23.60
2022-08-31T01:39:07.439Z,23.60
2022-08-31T01:41:34.713Z,23.60
2022-08-31T01:44:01.789Z,23.60
2022-08-31T01:46:29.078Z,23.60
2022-08-31T01:48:56.048Z,23.50
2022-08-31T01:51:23.180Z,23.50
2022-08-31T01:53:52.558Z,23.50
2022-08-31T01:56:31.667Z,23.50
2022-08-31T01:59:07.600Z,23.50
2022-08-31T02:01:58.411Z,23.50
2022-08-31T02:04:29.070Z,23.50
2022-08-31T02:06:59.684Z,23.50
2022-08-31T02:09:28.861Z,23.50
2022-08-31T02:11:55.985Z,23.50
2022-08-31T02:14:23.195Z,23.50
2022-08-31T02:16:50.241Z,23.50
2022-08-31T02:19:17.737Z,23.50
2022-08-31T02:21:44.791Z,23.50
2022-08-31T02:24:12.415Z,23.50
2022-08-31T02:26:40.269Z,23.50
2022-08-31T02:29:07.807Z,23.50
2022-08-31T02:31:35.417Z,23.50
2022-08-31T02:34:03.095Z,23.50
2022-08-31T02:36:32.315Z,23.50
2022-08-31T02:39:03.649Z,23.50
2022-08-31T02:41:33.342Z,23.50
2022-08-31T02:44:00.259Z,23.50
2022-08-31T02:46:29.820Z,23.50
2022-08-31T02:49:14.867Z,23.50
2022-08-31T02:51:43.704Z,23.50
2022-08-31T02:54:12.019Z,23.50
2022-08-31T02:56:39.147Z,23.50
2022-08-31T02:59:07.313Z,23.40
2022-08-31T03:01:36.167Z,23.40
2022-08-31T03:04:05.268Z,23.40
2022-08-31T03:06:32.688Z,23.40
2022-08-31T03:09:01.193Z,23.40
2022-08-31T03:11:28.913Z,23.40
2022-08-31T03:13:58.631Z,23.40
2022-08-31T03:16:26.161Z,23.40
2022-08-31T03:18:53.342Z,23.40
2022-08-31T03:21:20.225Z,23.40
2022-08-31T03:23:47.152Z,23.40
2022-08-31T03:26:14.690Z,23.30
2022-08-31T03:28:42.010Z,23.30
2022-08-31T03:31:38.126Z,23.40
2022-08-31T03:34:05.230Z,23.30
2022-08-31T03:36:32.230Z,23.30
2022-08-31T03:38:59.201Z,23.30
2022-08-31T03:41:26.653Z,23.30
2022-08-31T03:43:53.985Z,23.40
2022-08-31T03:46:21.278Z,23.30
2022-08-31T03:48:49.458Z,23.30
2022-08-31T03:51:17.863Z,23.30
2022-08-31T03:53:44.997Z,23.30
2022-08-31T03:56:17.698Z,23.30
2022-08-31T03:58:45.208Z,23.30
2022-08-31T04:01:26.611Z,23.30
2022-08-31T04:04:13.874Z,23.30
2022-08-31T04:06:46.481Z,23.30
2022-08-31T04:09:32.074Z,23.30
2022-08-31T04:12:37.058Z,23.30
2022-08-31T04:15:11.369Z,23.20
2022-08-31T04:18:04.505Z,23.30
2022-08-31T04:20:43.943Z,23.30
2022-08-31T04:23:11.916Z,23.30
2022-08-31T04:25:46.397Z,23.30
2022-08-31T04:28:13.369Z,23.30
2022-08-31T04:30:42.782Z,23.20
2022-08-31T04:33:12.283Z,23.30
2022-08-31T04:35:41.255Z,23.20
2022-08-31T04:38:10.114Z,23.30
2022-08-31T04:40:39.823Z,23.20
2022-08-31T04:43:07.738Z,23.30
2022-08-31T04:45:34.733Z,23.30
2022-08-31T04:48:01.746Z,23.20
2022-08-31T04:50:28.804Z,23.20
2022-08-31T04:53:09.307Z,23.20
2022-08-31T04:55:42.524Z,23.20
2022-08-31T04:58:13.707Z,23.30
2022-08-31T05:00:43.881Z,23.20
2022-08-31T05:03:30.694Z,23.20
2022-08-31T05:05:57.959Z,23.10
2022-08-31T05:08:25.759Z,23.10
2022-08-31T05:10:52.902Z,23.30
2022-08-31T05:13:20.207Z,23.30
2022-08-31T05:15:47.896Z,23.40
2022-08-31T05:18:20.028Z,23.40
2022-08-31T05:20:53.607Z,23.50
2022-08-31T05:23:20.758Z,23.50
2022-08-31T05:25:47.888Z,23.40
2022-08-31T05:28:16.730Z,23.40
2022-08-31T05:30:45.008Z,23.50
2022-08-31T05:33:23.743Z,23.40
2022-08-31T05:35:50.684Z,23.50
2022-08-31T05:38:17.667Z,23.50
2022-08-31T05:40:51.963Z,23.50
2022-08-31T05:43:20.056Z,23.50
2022-08-31T05:45:47.321Z,23.50
2022-08-31T05:48:14.665Z,23.40
2022-08-31T05:50:41.900Z,23.50
2022-08-31T05:53:09.896Z,23.50
2022-08-31T05:55:36.861Z,23.50
2022-08-31T05:58:05.361Z,23.50
2022-08-31T06:00:33.126Z,23.50
2022-08-31T06:03:20.064Z,23.50
2022-08-31T06:05:50.572Z,23.50
2022-08-31T06:08:18.548Z,23.50
2022-08-31T06:10:57.837Z,23.60
2022-08-31T06:13:26.467Z,23.50
2022-08-31T06:15:53.682Z,23.50
2022-08-31T06:18:21.056Z,23.50
2022-08-31T06:20:50.044Z,23.50
2022-08-31T06:23:17.941Z,23.50
2022-08-31T06:25:48.648Z,23.50
2022-08-31T06:28:15.847Z,23.50
2022-08-31T06:30:55.059Z,23.50
2022-08-31T06:33:23.063Z,23.60
2022-08-31T06:36:02.813Z,23.50
2022-08-31T06:38:52.889Z,23.60
2022-08-31T06:41:46.018Z,23.50
2022-08-31T06:44:32.628Z,23.60
2022-08-31T06:47:08.809Z,23.60
2022-08-31T06:49:39.326Z,23.60
2022-08-31T06:52:07.926Z,23.60
2022-08-31T06:54:37.276Z,23.50
2022-08-31T06:57:22.777Z,23.50
2022-08-31T07:00:01.535Z,23.40
2022-08-31T07:02:57.561Z,23.40
2022-08-31T07:05:25.508Z,23.30
2022-08-31T07:07:54.861Z,23.30
2022-08-31T07:10:21.967Z,23.30
2022-08-31T07:12:49.037Z,23.30
2022-08-31T07:15:16.137Z,23.20
2022-08-31T07:17:43.145Z,23.20
2022-08-31T07:20:11.603Z,23.20
2022-08-31T07:22:38.612Z,23.30
2022-08-31T07:25:29.112Z,23.20
2022-08-31T07:27:56.685Z,23.20
2022-08-31T07:30:24.409Z,23.20
2022-08-31T07:32:56.452Z,23.20
2022-08-31T07:35:24.624Z,23.20
2022-08-31T07:38:31.252Z,23.30
2022-08-31T07:41:16.723Z,23.30
2022-08-31T07:43:45.136Z,23.30
2022-08-31T07:46:12.139Z,23.20
2022-08-31T07:48:39.369Z,23.30
2022-08-31T07:51:27.348Z,23.30
2022-08-31T07:54:25.310Z,23.30
2022-08-31T07:57:09.436Z,23.40
2022-08-31T07:59:39.430Z,23.40
2022-08-31T08:02:07.717Z,23.40
2022-08-31T08:04:40.976Z,23.40
2022-08-31T08:07:54.735Z,23.40
2022-08-31T08:10:54.090Z,23.50
2022-08-31T08:13:45.090Z,23.50
2022-08-31T08:16:30.927Z,23.60
2022-08-31T08:19:19.344Z,23.70
2022-08-31T08:21:47.653Z,23.70
2022-08-31T08:24:22.232Z,23.80
2022-08-31T08:27:08.063Z,23.80
2022-08-31T08:29:56.112Z,23.90
2022-08-31T08:32:27.831Z,23.90
2022-08-31T08:34:55.356Z,24.00
2022-08-31T08:37:40.991Z,24.00
2022-08-31T08:40:19.455Z,24.00
2022-08-31T08:42:46.439Z,24.00
2022-08-31T08:45:13.477Z,24.00
2022-08-31T08:47:41.014Z,24.00
2022-08-31T08:50:10.561Z,24.10
2022-08-31T08:52:42.713Z,24.10
2022-08-31T08:55:22.089Z,24.20
2022-08-31T08:57:52.329Z,24.10
2022-08-31T09:00:24.917Z,24.10
2022-08-31T09:03:01.993Z,24.10
2022-08-31T09:06:10.151Z,24.10
2022-08-31T09:08:55.235Z,24.20
2022-08-31T09:11:27.354Z,24.20
2022-08-31T09:14:11.425Z,24.20
2022-08-31T09:16:49.872Z,24.20
2022-08-31T09:19:19.883Z,24.30
2022-08-31T09:21:55.682Z,24.30
2022-08-31T09:24:27.588Z,24.30
2022-08-31T09:27:46.750Z,24.40
2022-08-31T09:30:31.896Z,24.40
2022-08-31T09:32:59.330Z,24.40
2022-08-31T09:35:41.447Z,24.40
2022-08-31T09:38:11.371Z,24.40
2022-08-31T09:40:43.375Z,24.40
2022-08-31T09:43:36.232Z,24.40
2022-08-31T09:46:12.557Z,24.40
2022-08-31T09:48:44.611Z,24.40
2022-08-31T09:51:29.756Z,24.50
2022-08-31T09:54:24.800Z,24.50
2022-08-31T09:57:04.936Z,24.50
2022-08-31T09:59:41.901Z,24.40
2022-08-31T10:02:26.644Z,24.40
2022-08-31T10:05:01.149Z,24.50
2022-08-31T10:07:53.168Z,24.50
2022-08-31T10:10:32.542Z,24.60
2022-08-31T10:13:18.180Z,24.60
2022-08-31T10:15:57.967Z,24.60
2022-08-31T10:18:39.529Z,24.70
2022-08-31T10:21:21.171Z,24.60
2022-08-31T10:24:28.263Z,24.70
2022-08-31T10:27:20.428Z,24.60
2022-08-31T10:30:06.417Z,24.70
2022-08-31T10:32:51.711Z,24.70
2022-08-31T10:35:24.066Z,24.70
2022-08-31T10:38:10.167Z,24.70
2022-08-31T10:40:47.357Z,24.70
2022-08-31T10:43:21.535Z,24.70
2022-08-31T10:45:52.815Z,24.70
2022-08-31T10:48:23.450Z,24.70
2022-08-31T10:51:18.153Z,24.80
2022-08-31T10:54:24.737Z,24.80
2022-08-31T10:57:01.464Z,24.80
2022-08-31T10:59:56.192Z,24.80
2022-08-31T11:03:10.086Z,24.80
2022-08-31T11:05:50.602Z,24.80
2022-08-31T11:09:02.472Z,24.80
2022-08-31T11:11:47.614Z,24.80
2022-08-31T11:14:43.969Z,24.80
2022-08-31T11:17:32.376Z,24.80
2022-08-31T11:20:39.829Z,24.80
2022-08-31T11:23:33.888Z,24.80
2022-08-31T11:26:43.382Z,24.80
2022-08-31T11:29:28.858Z,24.70
2022-08-31T11:32:07.625Z,24.70
2022-08-31T11:34:52.382Z,24.80
2022-08-31T11:37:55.678Z,24.80
2022-08-31T11:40:43.885Z,24.80
2022-08-31T11:43:35.598Z,24.90
2022-08-31T11:46:27.851Z,24.80
2022-08-31T11:48:55.084Z,24.90
2022-08-31T11:51:40.749Z,24.80
2022-08-31T11:54:26.310Z,24.90
2022-08-31T11:56:57.016Z,24.90
2022-08-31T11:59:32.644Z,24.80
2022-08-31T12:02:20.977Z,24.90
2022-08-31T12:04:53.527Z,24.90
2022-08-31T12:07:36.559Z,24.90
2022-08-31T12:10:18.422Z,24.90
2022-08-31T12:13:09.749Z,24.90
2022-08-31T12:16:30.238Z,24.90
2022-08-31T12:19:56.717Z,25.00
2022-08-31T12:23:31.142Z,24.90
2022-08-31T12:26:16.381Z,24.90
2022-08-31T12:29:00.157Z,24.90
2022-08-31T12:31:27.184Z,24.90
2022-08-31T12:34:24.587Z,24.90
2022-08-31T12:36:52.012Z,25.00
2022-08-31T12:39:21.700Z,24.90
2022-08-31T12:41:51.797Z,24.90
2022-08-31T12:44:25.621Z,24.90
2022-08-31T12:47:06.804Z,25.00
2022-08-31T12:49:54.658Z,25.00
2022-08-31T12:53:04.794Z,25.00
2022-08-31T12:56:01.010Z,25.00
2022-08-31T12:59:00.008Z,24.90
2022-08-31T13:01:27.704Z,25.00
2022-08-31T13:03:59.575Z,25.00
2022-08-31T13:06:33.528Z,25.00
2022-08-31T13:09:01.473Z,25.00
2022-08-31T13:11:41.509Z,25.00
2022-08-31T13:14:23.017Z,25.10
2022-08-31T13:16:55.090Z,25.10
2022-08-31T13:19:32.973Z,25.00
2022-08-31T13:22:09.830Z,25.10
2022-08-31T13:24:51.305Z,25.10
2022-08-31T13:27:30.324Z,25.00
2022-08-31T13:30:12.865Z,25.00
2022-08-31T13:32:44.887Z,25.10
2022-08-31T13:35:15.253Z,25.10
2022-08-31T13:38:09.064Z,25.10
2022-08-31T13:40:43.989Z,25.10
2022-08-31T13:43:20.185Z,25.10
2022-08-31T13:45:58.675Z,25.10
2022-08-31T13:48:40.678Z,25.10
2022-08-31T13:51:19.565Z,25.20
2022-08-31T13:53:55.352Z,25.10
2022-08-31T13:56:49.175Z,25.10
2022-08-31T13:59:33.656Z,25.00
2022-08-31T14:02:07.346Z,25.10
2022-08-31T14:04:48.976Z,25.10
2022-08-31T14:07:27.284Z,25.10
2022-08-31T14:09:58.765Z,25.10
2022-08-31T14:12:36.397Z,25.20
2022-08-31T14:15:17.682Z,25.20
2022-08-31T14:21:26.388Z,25.10
2022-08-31T14:23:56.263Z,25.20
2022-08-31T14:26:28.803Z,25.10
2022-08-31T14:29:00.557Z,25.10
2022-08-31T14:31:37.154Z,25.20
2022-08-31T14:34:20.209Z,25.20
2022-08-31T14:36:53.771Z,25.20
2022-08-31T14:39:24.420Z,25.20
2022-08-31T14:41:54.118Z,25.20
2022-08-31T14:44:26.953Z,25.20
2022-08-31T14:46:54.153Z,25.20
2022-08-31T14:49:21.096Z,25.20
2022-08-31T14:51:48.034Z,25.20
2022-08-31T14:54:16.993Z,25.20
2022-08-31T14:56:51.192Z,25.20
2022-08-31T14:59:21.663Z,25.20
2022-08-31T15:01:50.765Z,25.20
2022-08-31T15:04:20.712Z,25.20
2022-08-31T15:06:50.567Z,25.20
2022-08-31T15:09:17.650Z,25.20
2022-08-31T15:11:45.696Z,25.20
2022-08-31T15:14:14.219Z,25.20
2022-08-31T15:16:47.615Z,25.20
2022-08-31T15:19:15.085Z,25.20
2022-08-31T15:21:52.747Z,25.20
2022-08-31T15:24:26.798Z,25.30
2022-08-31T15:26:55.819Z,25.20
2022-08-31T15:29:24.775Z,25.30
2022-08-31T15:31:54.895Z,25.20
2022-08-31T15:34:33.275Z,25.30
2022-08-31T15:37:06.312Z,25.30
2022-08-31T15:39:36.161Z,25.30
2022-08-31T15:42:09.195Z,25.30
2022-08-31T15:44:40.872Z,25.30
2022-08-31T15:47:28.425Z,25.30
2022-08-31T15:49:58.502Z,25.30
2022-08-31T15:52:27.708Z,25.20
2022-08-31T15:54:55.840Z,25.20
2022-08-31T15:57:23.811Z,25.20
2022-08-31T15:59:50.899Z,25.20
2022-08-31T16:02:20.903Z,25.20
2022-08-31T16:04:50.685Z,25.20
2022-08-31T16:07:17.678Z,25.20
2022-08-31T16:09:47.580Z,25.30
2022-08-31T16:12:16.731Z,25.20
2022-08-31T16:14:46.611Z,25.20
2022-08-31T16:17:19.918Z,25.20
2022-08-31T16:19:48.483Z,25.30
2022-08-31T16:22:16.832Z,25.20
2022-08-31T16:24:44.677Z,25.20
2022-08-31T16:27:15.956Z,25.20
2022-08-31T16:29:43.997Z,25.20
2022-08-31T16:32:10.917Z,25.20
2022-08-31T16:34:39.194Z,25.20
2022-08-31T16:37:07.927Z,25.20
2022-08-31T16:39:40.534Z,25.20
2022-08-31T16:42:08.927Z,25.30
2022-08-31T16:44:36.442Z,25.20
2022-08-31T16:47:05.153Z,25.20
2022-08-31T16:49:36.153Z,25.20
2022-08-31T16:52:10.056Z,25.20
2022-08-31T16:54:42.817Z,25.20
2022-08-31T16:57:14.821Z,25.20
2022-08-31T16:59:42.002Z,25.20
2022-08-31T17:02:13.549Z,25.10
2022-08-31T17:04:57.813Z,25.20
2022-08-31T17:07:25.271Z,25.20
2022-08-31T17:09:57.289Z,25.10
2022-08-31T17:12:26.726Z,25.20
2022-08-31T17:14:53.724Z,25.20
2022-08-31T17:17:23.401Z,25.20
2022-08-31T17:19:52.119Z,25.20
2022-08-31T17:22:25.704Z,25.10
2022-08-31T17:24:56.496Z,25.10
2022-08-31T17:27:24.788Z,25.10
2022-08-31T17:29:53.947Z,25.10
2022-08-31T17:32:24.317Z,25.10
2022-08-31T17:34:54.378Z,25.20
2022-08-31T17:37:25.961Z,25.10
2022-08-31T17:39:54.118Z,25.10
2022-08-31T17:42:22.512Z,25.10
2022-08-31T17:44:53.433Z,25.20
2022-08-31T17:47:21.826Z,25.20
2022-08-31T17:49:50.892Z,25.10
2022-08-31T17:52:20.723Z,25.10
2022-08-31T17:54:48.453Z,25.20
2022-08-31T17:57:17.415Z,25.20
2022-08-31T17:59:48.713Z,25.20
2022-08-31T18:02:23.077Z,25.20
2022-08-31T18:04:52.112Z,25.20
2022-08-31T18:07:19.691Z,25.20
2022-08-31T18:09:46.961Z,25.20
2022-08-31T18:12:21.841Z,25.20
2022-08-31T18:14:49.099Z,25.20
2022-08-31T18:17:16.337Z,25.20
2022-08-31T18:19:44.998Z,25.30
2022-08-31T18:22:14.461Z,25.20
2022-08-31T18:24:42.979Z,25.20
2022-08-31T18:27:11.780Z,25.30
2022-08-31T18:29:39.550Z,25.20
2022-08-31T18:32:08.301Z,25.20
2022-08-31T18:34:40.069Z,25.30
2022-08-31T18:37:07.968Z,25.20
2022-08-31T18:39:55.076Z,25.20
2022-08-31T18:42:45.507Z,25.30
2022-08-31T18:45:19.444Z,25.20
2022-08-31T18:50:46.517Z,25.20
2022-08-31T18:53:29.015Z,25.20
2022-08-31T18:56:08.865Z,25.20
2022-08-31T18:58:37.266Z,25.20
2022-08-31T19:01:09.225Z,25.20
2022-08-31T19:03:37.840Z,25.20
2022-08-31T19:06:05.414Z,25.20
2022-08-31T19:08:33.014Z,25.20
2022-08-31T19:11:00.274Z,25.20
2022-08-31T19:13:31.475Z,25.20
2022-08-31T19:16:02.336Z,25.20
2022-08-31T19:18:33.414Z,25.20
2022-08-31T19:21:10.637Z,25.20
2022-08-31T19:23:37.539Z,25.20
2022-08-31T19:26:05.462Z,25.20
2022-08-31T19:28:32.362Z,25.20
2022-08-31T19:30:59.362Z,25.20
2022-08-31T19:33:27.051Z,25.20
2022-08-31T19:36:04.716Z,25.10
2022-08-31T19:38:31.881Z,25.10
2022-08-31T19:41:00.113Z,25.10
2022-08-31T19:43:48.401Z,25.20
2022-08-31T19:46:20.771Z,25.20
2022-08-31T19:48:49.966Z,25.20
2022-08-31T19:51:20.598Z,25.20
2022-08-31T19:53:49.714Z,25.20
2022-08-31T19:56:31.149Z,25.10
2022-08-31T19:58:59.417Z,25.20
2022-08-31T20:01:33.748Z,25.20
2022-08-31T20:04:15.758Z,25.10
2022-08-31T20:06:45.635Z,25.10
2022-08-31T20:09:13.060Z,25.20
2022-08-31T20:11:40.663Z,25.10
2022-08-31T20:14:07.926Z,25.20
2022-08-31T20:16:41.581Z,25.10
2022-08-31T20:19:10.786Z,25.20
2022-08-31T20:21:40.481Z,25.10
2022-08-31T20:24:10.917Z,25.20
2022-08-31T20:26:47.402Z,25.20
2022-08-31T20:29:20.194Z,25.10
2022-08-31T20:31:49.325Z,25.20
2022-08-31T20:34:19.015Z,25.20
2022-08-31T20:36:48.267Z,25.10
2022-08-31T20:39:17.442Z,25.10
2022-08-31T20:41:47.846Z,25.10
2022-08-31T20:44:20.421Z,25.10
2022-08-31T20:47:09.072Z,25.20
2022-08-31T20:49:39.971Z,25.10
2022-08-31T20:52:08.613Z,25.10
2022-08-31T20:54:36.616Z,25.00
2022-08-31T20:57:07.018Z,25.10
2022-08-31T20:59:34.495Z,25.10
2022-08-31T21:02:04.135Z,25.00
2022-08-31T21:04:38.103Z,25.10
2022-08-31T21:07:06.342Z,25.00
2022-08-31T21:09:33.771Z,25.00
2022-08-31T21:12:01.369Z,25.00
2022-08-31T21:14:29.387Z,25.00
2022-08-31T21:16:57.119Z,25.00
2022-08-31T21:19:24.938Z,24.90
2022-08-31T21:21:56.239Z,24.90
2022-08-31T21:24:23.350Z,24.90
2022-08-31T21:26:59.380Z,24.90
2022-08-31T21:29:30.422Z,24.90
2022-08-31T21:32:03.260Z,24.90
2022-08-31T21:34:30.913Z,24.90
2022-08-31T21:36:57.772Z,24.90
2022-08-31T21:39:24.951Z,24.90
2022-08-31T21:41:52.104Z,24.90
2022-08-31T21:44:20.963Z,24.90
2022-08-31T21:46:50.791Z,24.80
2022-08-31T21:49:19.108Z,24.80
2022-08-31T21:51:52.875Z,24.80
2022-08-31T21:54:23.054Z,24.80
2022-08-31T21:56:56.710Z,24.80
2022-08-31T21:59:26.814Z,24.80
2022-08-31T22:01:59.059Z,24.80
2022-08-31T22:04:31.656Z,24.80
2022-08-31T22:06:59.579Z,24.70
2022-08-31T22:09:28.783Z,24.70
2022-08-31T22:11:58.358Z,24.70
2022-08-31T22:14:29.717Z,24.70
2022-08-31T22:16:59.097Z,24.70
2022-08-31T22:19:28.543Z,24.70
2022-08-31T22:22:01.039Z,24.70
2022-08-31T22:24:33.659Z,24.70
2022-08-31T22:27:04.019Z,24.70
2022-08-31T22:29:32.992Z,24.70
2022-08-31T22:32:03.457Z,24.70
2022-08-31T22:34:30.454Z,24.60
2022-08-31T22:36:57.672Z,24.60
2022-08-31T22:39:27.509Z,24.60
2022-08-31T22:41:55.360Z,24.60
2022-08-31T22:44:24.995Z,24.60
2022-08-31T22:46:52.761Z,24.60
2022-08-31T22:49:19.976Z,24.60
2022-08-31T22:51:48.398Z,24.60
2022-08-31T22:54:17.925Z,24.60
2022-08-31T22:56:45.396Z,24.50
2022-08-31T22:59:15.102Z,24.50
2022-08-31T23:01:47.546Z,24.50
2022-08-31T23:04:20.077Z,24.50
2022-08-31T23:06:49.213Z,24.50
2022-08-31T23:09:20.902Z,24.50
2022-08-31T23:11:51.610Z,24.50
2022-08-31T23:14:21.085Z,24.50
2022-08-31T23:16:55.229Z,24.40
2022-08-31T23:19:26.320Z,24.40
2022-08-31T23:21:56.904Z,24.40
2022-08-31T23:24:46.901Z,24.40
2022-08-31T23:27:19.354Z,24.50
2022-08-31T23:29:56.783Z,24.40
2022-08-31T23:32:29.186Z,24.40
2022-08-31T23:34:58.078Z,24.40
2022-08-31T23:37:26.498Z,24.40
2022-08-31T23:39:56.129Z,24.40
2022-08-31T23:42:24.999Z,24.40
2022-08-31T23:44:52.357Z,24.30
2022-08-31T23:47:25.889Z,24.30
2022-08-31T23:49:54.676Z,24.40
2022-08-31T23:52:24.245Z,24.30
2022-08-31T23:54:53.780Z,24.30
2022-08-31T23:57:33.329Z,24.20
